Snow/Ice From: 16-12-2017 16:00 Until: 17-12-2017 16:00 warning for: Snow/Ice Level: Yellow info button

Although rather usual in this region, locally or potentially dangerous phenomena are expected. (such as local winds, summer thunderstorms, rising streams or high waves) Be aware and pay attention to the latest weather updates, especially if you carry out activities exposed to weather or close to a stream or shoreline. 


Meteo18 Weather Cam more information Meteo18 Weather Cam


Thunder radar more information blitzortung!


warning for Snow/Ice more information rain snow radar


Visit our other weather sites:

Template documentation
and downloads

And another site



Weather Underground History page Text

Daily Summary for March 14, 2016 Units:  Metric    English   Both
« Previous Day
Next Day »
Daily Weekly Monthly Yearly Custom
  High: Low: Average:
Temperature: 12.2 °C 2.3 °C 7 °C
Dew Point: 5.8 °C 0.4 °C 2.9 °C
Humidity: 88 % 59 % 76 %
Wind Speed: 12.9 km/h 0.0 km/h 3.1 km/h
Wind Gust: 20.9 km/h - -
Wind:- - ENE
Pressure: 1023.9 hPa 1021.6 hPa -
Precipitation: 0.0 mm    
Historical Graphs
 
 
Tabular Data for March 14, 2016
Time Temperature Dew Point Pressure Wind Wind Speed Wind Gust Humidity Rainfall Rate (Hourly)
00:02 6.4 °C 2.7 °C 1023.9 hPa East 1.6 km/h 17.7 km/h 77 % 0.0 mm
00:07 6.4 °C 2.7 °C 1023.6 hPa NNE 8.0 km/h 17.7 km/h 77 % 0.0 mm
00:12 6.4 °C 2.8 °C 1023.6 hPa North 4.8 km/h 17.7 km/h 78 % 0.0 mm
00:17 6.3 °C 2.7 °C 1023.6 hPa NE 6.4 km/h 17.7 km/h 78 % 0.0 mm
00:22 6.3 °C 2.7 °C 1023.6 hPa NE 8.0 km/h 17.7 km/h 78 % 0.0 mm
00:27 6.3 °C 2.7 °C 1023.6 hPa NNE 3.2 km/h 14.5 km/h 78 % 0.0 mm
00:32 6.3 °C 2.7 °C 1023.6 hPa NNE 6.4 km/h 12.9 km/h 78 % 0.0 mm
00:37 6.3 °C 2.9 °C 1023.6 hPa NE 4.8 km/h 12.9 km/h 79 % 0.0 mm
00:42 6.2 °C 2.8 °C 1023.6 hPa NE 1.6 km/h 11.3 km/h 79 % 0.0 mm
00:52 6.2 °C 2.8 °C 1023.6 hPa NE 3.2 km/h 16.1 km/h 79 % 0.0 mm
00:57 6.2 °C 2.8 °C 1023.6 hPa NE 1.6 km/h 14.5 km/h 79 % 0.0 mm
01:02 6.2 °C 2.8 °C 1023.6 hPa NNW 4.8 km/h 14.5 km/h 79 % 0.0 mm
01:12 6.1 °C 2.9 °C 1023.6 hPa NE 9.7 km/h 14.5 km/h 80 % 0.0 mm
01:17 6.1 °C 2.9 °C 1023.6 hPa NNE 6.4 km/h 14.5 km/h 80 % 0.0 mm
01:27 6.1 °C 2.7 °C 1023.6 hPa ENE 4.8 km/h 14.5 km/h 79 % 0.0 mm
01:32 6.1 °C 2.9 °C 1023.6 hPa East 1.6 km/h 14.5 km/h 80 % 0.0 mm
01:37 6.1 °C 2.9 °C 1023.6 hPa NNE 1.6 km/h 14.5 km/h 80 % 0.0 mm
01:42 5.9 °C 2.7 °C 1023.6 hPa NE 3.2 km/h 14.5 km/h 80 % 0.0 mm
01:47 5.9 °C 2.7 °C 1023.2 hPa NE 4.8 km/h 12.9 km/h 80 % 0.0 mm
01:52 5.9 °C 2.9 °C 1023.2 hPa East 3.2 km/h 12.9 km/h 81 % 0.0 mm
01:57 5.9 °C 2.9 °C 1023.6 hPa NE 3.2 km/h 12.9 km/h 81 % 0.0 mm
02:02 5.8 °C 2.8 °C 1023.6 hPa ENE 1.6 km/h 12.9 km/h 81 % 0.0 mm
02:12 5.8 °C 2.8 °C 1023.2 hPa NNE 1.6 km/h 12.9 km/h 81 % 0.0 mm
02:17 5.7 °C 2.7 °C 1023.2 hPa North 8.0 km/h 12.9 km/h 81 % 0.0 mm
02:22 5.7 °C 2.7 °C 1023.2 hPa NNE 1.6 km/h 9.7 km/h 81 % 0.0 mm
02:32 5.7 °C 2.7 °C 1023.2 hPa Calm   11.3 km/h 81 % 0.0 mm
02:37 5.7 °C 2.9 °C 1023.2 hPa NE 1.6 km/h 11.3 km/h 82 % 0.0 mm
02:52 5.7 °C 2.9 °C 1023.2 hPa ENE 1.6 km/h 12.9 km/h 82 % 0.0 mm
03:02 5.6 °C 2.8 °C 1022.9 hPa NE 3.2 km/h 12.9 km/h 82 % 0.0 mm
03:07 5.6 °C 2.8 °C 1022.9 hPa NNE 1.6 km/h 12.9 km/h 82 % 0.0 mm
03:12 5.6 °C 2.8 °C 1022.9 hPa NNE 6.4 km/h 11.3 km/h 82 % 0.0 mm
03:17 5.6 °C 2.8 °C 1022.9 hPa NNE 6.4 km/h 9.7 km/h 82 % 0.0 mm
03:22 5.5 °C 2.7 °C 1022.9 hPa ESE 3.2 km/h 9.7 km/h 82 % 0.0 mm
03:27 5.5 °C 2.7 °C 1022.9 hPa Calm   9.7 km/h 82 % 0.0 mm
03:32 5.5 °C 2.7 °C 1022.9 hPa Calm   9.7 km/h 82 % 0.0 mm
03:42 5.5 °C 2.7 °C 1022.9 hPa North 11.3 km/h 11.3 km/h 82 % 0.0 mm
03:52 5.3 °C 2.6 °C 1022.9 hPa NNW 3.2 km/h 11.3 km/h 83 % 0.0 mm
04:02 5.3 °C 2.6 °C 1022.6 hPa North 1.6 km/h 9.7 km/h 83 % 0.0 mm
04:07 5.3 °C 2.6 °C 1022.6 hPa Calm   9.7 km/h 83 % 0.0 mm
04:12 5.2 °C 2.5 °C 1022.6 hPa NNE 1.6 km/h 9.7 km/h 83 % 0.0 mm
04:17 5.2 °C 2.5 °C 1022.6 hPa NNE 8.0 km/h 9.7 km/h 83 % 0.0 mm
04:22 5.2 °C 2.5 °C 1022.6 hPa NNE 1.6 km/h 9.7 km/h 83 % 0.0 mm
04:32 5.0 °C 2.4 °C 1022.6 hPa NNE 1.6 km/h 8.0 km/h 83 % 0.0 mm
04:37 4.9 °C 2.4 °C 1022.6 hPa NE 4.8 km/h 8.0 km/h 84 % 0.0 mm
04:42 4.8 °C 2.3 °C 1022.6 hPa ENE 3.2 km/h 6.4 km/h 84 % 0.0 mm
04:47 4.8 °C 2.3 °C 1022.6 hPa NE 3.2 km/h 6.4 km/h 84 % 0.0 mm
04:52 4.8 °C 2.3 °C 1022.6 hPa NE 1.6 km/h 6.4 km/h 84 % 0.0 mm
04:57 4.7 °C 2.2 °C 1022.6 hPa NE 1.6 km/h 6.4 km/h 84 % 0.0 mm
05:02 4.7 °C 2.2 °C 1022.6 hPa Calm   8.0 km/h 84 % 0.0 mm
05:07 4.7 °C 2.2 °C 1022.9 hPa NNE 1.6 km/h 11.3 km/h 84 % 0.0 mm
05:17 4.7 °C 2.4 °C 1022.9 hPa NE 1.6 km/h 11.3 km/h 85 % 0.0 mm
05:22 4.7 °C 2.4 °C 1022.9 hPa NNE 3.2 km/h 9.7 km/h 85 % 0.0 mm
05:27 4.7 °C 2.4 °C 1022.9 hPa NNW 3.2 km/h 8.0 km/h 85 % 0.0 mm
05:32 4.7 °C 2.4 °C 1022.9 hPa NNE 6.4 km/h 9.7 km/h 85 % 0.0 mm
05:37 4.8 °C 2.3 °C 1022.9 hPa NE 4.8 km/h 9.7 km/h 84 % 0.0 mm
05:42 4.7 °C 2.2 °C 1022.9 hPa NNE 1.6 km/h 9.7 km/h 84 % 0.0 mm
05:47 4.7 °C 2.2 °C 1022.9 hPa NNE 3.2 km/h 8.0 km/h 84 % 0.0 mm
05:57 4.7 °C 2.2 °C 1022.9 hPa NNE 4.8 km/h 8.0 km/h 84 % 0.0 mm
06:02 4.7 °C 2.2 °C 1022.9 hPa NNW 4.8 km/h 11.3 km/h 84 % 0.0 mm
06:07 4.6 °C 2.3 °C 1022.9 hPa NE 6.4 km/h 11.3 km/h 85 % 0.0 mm
06:12 4.5 °C 2.2 °C 1022.9 hPa NNE 4.8 km/h 11.3 km/h 85 % 0.0 mm
06:17 4.4 °C 2.1 °C 1022.9 hPa North 4.8 km/h 8.0 km/h 85 % 0.0 mm
06:22 4.3 °C 2.0 °C 1022.9 hPa NE 1.6 km/h 6.4 km/h 85 % 0.0 mm
06:27 4.2 °C 2.1 °C 1022.9 hPa NNE 1.6 km/h 6.4 km/h 86 % 0.0 mm
06:37 4.1 °C 2.0 °C 1022.9 hPa North 6.4 km/h 9.7 km/h 86 % 0.0 mm
06:42 4.0 °C 1.9 °C 1022.9 hPa Calm   9.7 km/h 86 % 0.0 mm
06:47 3.9 °C 1.8 °C 1022.9 hPa ENE 1.6 km/h 9.7 km/h 86 % 0.0 mm
06:52 3.8 °C 1.7 °C 1022.9 hPa NNE 4.8 km/h 11.3 km/h 86 % 0.0 mm
06:57 3.7 °C 1.7 °C 1022.9 hPa NE 1.6 km/h 11.3 km/h 87 % 0.0 mm
07:02 3.6 °C 1.6 °C 1023.2 hPa Calm   9.7 km/h 87 % 0.0 mm
07:07 3.4 °C 1.4 °C 1023.2 hPa NE 3.2 km/h 9.7 km/h 87 % 0.0 mm
07:17 3.3 °C 1.3 °C 1023.2 hPa Calm   11.3 km/h 87 % 0.0 mm
07:22 3.2 °C 1.4 °C 1023.2 hPa Calm   11.3 km/h 88 % 0.0 mm
07:27 3.2 °C 1.4 °C 1023.2 hPa ENE 4.8 km/h 11.3 km/h 88 % 0.0 mm
07:32 3.2 °C 1.4 °C 1023.2 hPa NE 6.4 km/h 9.7 km/h 88 % 0.0 mm
07:37 3.2 °C 1.4 °C 1023.2 hPa NNE 3.2 km/h 12.9 km/h 88 % 0.0 mm
07:42 3.2 °C 1.4 °C 1023.2 hPa NE 3.2 km/h 12.9 km/h 88 % 0.0 mm
07:52 3.3 °C 1.5 °C 1023.2 hPa North 1.6 km/h 9.7 km/h 88 % 0.0 mm
07:57 3.3 °C 1.5 °C 1023.2 hPa NE 1.6 km/h 9.7 km/h 88 % 0.0 mm
08:02 3.3 °C 1.5 °C 1023.2 hPa NNE 3.2 km/h 8.0 km/h 88 % 0.0 mm
08:12 3.5 °C 1.5 °C 1023.2 hPa NNE 4.8 km/h 8.0 km/h 87 % 0.0 mm
08:17 3.6 °C 1.6 °C 1023.2 hPa NE 4.8 km/h 11.3 km/h 87 % 0.0 mm
08:22 3.7 °C 1.6 °C 1023.6 hPa NE 1.6 km/h 11.3 km/h 86 % 0.0 mm
08:27 3.7 °C 1.6 °C 1023.2 hPa NE 4.8 km/h 11.3 km/h 86 % 0.0 mm
08:32 3.8 °C 1.7 °C 1023.6 hPa Calm   11.3 km/h 86 % 0.0 mm
08:37 3.9 °C 1.6 °C 1023.6 hPa NE 4.8 km/h 11.3 km/h 85 % 0.0 mm
08:47 4.2 °C 1.7 °C 1023.6 hPa NNE 6.4 km/h 14.5 km/h 84 % 0.0 mm
08:52 4.4 °C 1.9 °C 1023.6 hPa ENE 6.4 km/h 16.1 km/h 84 % 0.0 mm
08:57 4.6 °C 2.1 °C 1023.6 hPa ENE 4.8 km/h 16.1 km/h 84 % 0.0 mm
09:02 4.7 °C 2.1 °C 1023.6 hPa NNE 6.4 km/h 16.1 km/h 83 % 0.0 mm
09:07 4.8 °C 2.2 °C 1023.6 hPa Calm   11.3 km/h 83 % 0.0 mm
09:17 5.2 °C 2.4 °C 1023.6 hPa South 1.6 km/h 11.3 km/h 82 % 0.0 mm
09:22 5.3 °C 2.3 °C 1023.6 hPa North 3.2 km/h 11.3 km/h 81 % 0.0 mm
09:42 5.8 °C 2.8 °C 1023.6 hPa Calm   12.9 km/h 81 % 0.0 mm
09:52 6.3 °C 2.7 °C 1023.9 hPa NNE 4.8 km/h 12.9 km/h 78 % 0.0 mm
10:02 6.8 °C 3.1 °C 1023.9 hPa Calm   14.5 km/h 77 % 0.0 mm
10:12 7.1 °C 3.0 °C 1023.9 hPa Calm   9.7 km/h 75 % 0.0 mm
10:17 7.2 °C 3.1 °C 1023.9 hPa NE 4.8 km/h 8.0 km/h 75 % 0.0 mm
10:27 7.3 °C 3.2 °C 1023.9 hPa NNE 3.2 km/h 14.5 km/h 75 % 0.0 mm
10:32 7.3 °C 3.3 °C 1023.9 hPa NE 8.0 km/h 14.5 km/h 76 % 0.0 mm
10:37 7.3 °C 3.2 °C 1023.9 hPa East 3.2 km/h 14.5 km/h 75 % 0.0 mm
10:47 7.6 °C 3.5 °C 1023.9 hPa NE 3.2 km/h 12.9 km/h 75 % 0.0 mm
10:52 7.8 °C 3.8 °C 1023.9 hPa NNW 6.4 km/h 12.9 km/h 76 % 0.0 mm
11:02 8.2 °C 3.8 °C 1023.6 hPa NE 6.4 km/h 11.3 km/h 74 % 0.0 mm
11:12 8.6 °C 3.8 °C 1023.6 hPa NNE 4.8 km/h 11.3 km/h 72 % 0.0 mm
11:17 8.7 °C 3.9 °C 1023.6 hPa Calm   11.3 km/h 72 % 0.0 mm
11:22 9.1 °C 4.5 °C 1023.6 hPa Calm   6.4 km/h 73 % 0.0 mm
11:32 9.4 °C 4.2 °C 1023.2 hPa Calm   9.7 km/h 70 % 0.0 mm
11:37 9.7 °C 4.7 °C 1023.2 hPa NE 6.4 km/h 6.4 km/h 71 % 0.0 mm
11:42 9.8 °C 4.4 °C 1023.2 hPa Calm   8.0 km/h 69 % 0.0 mm
11:47 10.1 °C 4.0 °C 1023.2 hPa ENE 1.6 km/h 8.0 km/h 66 % 0.0 mm
11:52 10.0 °C 4.2 °C 1023.2 hPa Calm   8.0 km/h 67 % 0.0 mm
12:02 9.9 °C 4.3 °C 1023.2 hPa Calm   11.3 km/h 68 % 0.0 mm
12:12 10.3 °C 4.2 °C 1023.2 hPa SE 1.6 km/h 11.3 km/h 66 % 0.0 mm
12:17 10.5 °C 4.8 °C 1023.2 hPa ESE 3.2 km/h 11.3 km/h 68 % 0.0 mm
12:22 10.4 °C 4.1 °C 1023.2 hPa WSW 1.6 km/h 8.0 km/h 65 % 0.0 mm
12:27 10.2 °C 4.3 °C 1022.9 hPa North 4.8 km/h 12.9 km/h 67 % 0.0 mm
12:32 10.1 °C 4.7 °C 1022.9 hPa ESE 3.2 km/h 17.7 km/h 69 % 0.0 mm
12:37 9.8 °C 4.0 °C 1022.9 hPa Calm   17.7 km/h 67 % 0.0 mm
12:42 9.9 °C 4.5 °C 1022.9 hPa East 1.6 km/h 17.7 km/h 69 % 0.0 mm
12:47 10.2 °C 4.1 °C 1022.9 hPa NE 8.0 km/h 12.9 km/h 66 % 0.0 mm
13:02 10.6 °C 4.5 °C 1022.9 hPa North 3.2 km/h 9.7 km/h 66 % 0.0 mm
13:12 10.5 °C 4.2 °C 1022.9 hPa North 4.8 km/h 11.3 km/h 65 % 0.0 mm
13:17 10.5 °C 4.2 °C 1022.6 hPa NNE 3.2 km/h 14.5 km/h 65 % 0.0 mm
13:22 10.8 °C 4.7 °C 1022.6 hPa NNW 1.6 km/h 14.5 km/h 66 % 0.0 mm
13:32 11.0 °C 4.9 °C 1022.6 hPa NNE 9.7 km/h 12.9 km/h 66 % 0.0 mm
13:37 11.1 °C 5.0 °C 1022.6 hPa Calm   12.9 km/h 66 % 0.0 mm
13:42 11.2 °C 4.9 °C 1022.6 hPa North 3.2 km/h 11.3 km/h 65 % 0.0 mm
13:47 11.2 °C 4.6 °C 1022.6 hPa ENE 4.8 km/h 16.1 km/h 64 % 0.0 mm
13:52 11.1 °C 4.3 °C 1022.2 hPa NNE 1.6 km/h 19.3 km/h 63 % 0.0 mm
14:02 11.3 °C 5.0 °C 1022.2 hPa NNE 9.7 km/h 11.3 km/h 65 % 0.0 mm
14:07 11.3 °C 4.7 °C 1022.2 hPa NNE 9.7 km/h 11.3 km/h 64 % 0.0 mm
14:12 11.4 °C 4.8 °C 1022.2 hPa East 4.8 km/h 11.3 km/h 64 % 0.0 mm
14:17 11.3 °C 4.7 °C 1022.2 hPa North 1.6 km/h 9.7 km/h 64 % 0.0 mm
14:22 11.6 °C 5.2 °C 1022.2 hPa NNE 1.6 km/h 11.3 km/h 65 % 0.0 mm
14:32 11.8 °C 4.8 °C 1021.9 hPa ENE 3.2 km/h 9.7 km/h 62 % 0.0 mm
14:37 11.8 °C 5.0 °C 1021.9 hPa ESE 4.8 km/h 17.7 km/h 63 % 0.0 mm
14:47 12.1 °C 4.6 °C 1021.9 hPa NNE 8.0 km/h 17.7 km/h 60 % 0.0 mm
14:52 12.1 °C 4.8 °C 1021.9 hPa Calm   11.3 km/h 61 % 0.0 mm
14:57 11.9 °C 4.4 °C 1021.9 hPa ENE 3.2 km/h 11.3 km/h 60 % 0.0 mm
15:02 11.8 °C 4.8 °C 1021.9 hPa NNE 6.4 km/h 14.5 km/h 62 % 0.0 mm
15:12 11.9 °C 4.6 °C 1021.9 hPa Calm   20.9 km/h 61 % 0.0 mm
15:17 12.1 °C 4.8 °C 1021.9 hPa NE 6.4 km/h 20.9 km/h 61 % 0.0 mm
15:22 12.0 °C 5.2 °C 1021.9 hPa NE 8.0 km/h 16.1 km/h 63 % 0.0 mm
15:32 11.9 °C 5.1 °C 1021.6 hPa NNE 6.4 km/h 16.1 km/h 63 % 0.0 mm
15:42 12.1 °C 5.3 °C 1021.6 hPa East 3.2 km/h 14.5 km/h 63 % 0.0 mm
15:47 12.1 °C 4.3 °C 1021.6 hPa NNE 4.8 km/h 12.9 km/h 59 % 0.0 mm
15:52 12.2 °C 5.8 °C 1021.6 hPa East 4.8 km/h 12.9 km/h 65 % 0.0 mm
15:57 12.1 °C 4.6 °C 1021.6 hPa NE 1.6 km/h 12.9 km/h 60 % 0.0 mm
16:02 12.0 °C 4.9 °C 1021.6 hPa ESE 4.8 km/h 12.9 km/h 62 % 0.0 mm
16:07 12.1 °C 4.8 °C 1021.6 hPa ENE 6.4 km/h 12.9 km/h 61 % 0.0 mm
16:12 12.1 °C 4.6 °C 1021.6 hPa NNE 1.6 km/h 11.3 km/h 60 % 0.0 mm
16:17 12.1 °C 5.3 °C 1021.6 hPa NE 1.6 km/h 11.3 km/h 63 % 0.0 mm
16:22 12.1 °C 4.8 °C 1021.6 hPa NNE 1.6 km/h 11.3 km/h 61 % 0.0 mm
16:32 12.2 °C 4.9 °C 1021.6 hPa NNE 1.6 km/h 11.3 km/h 61 % 0.0 mm
16:42 12.0 °C 4.7 °C 1021.6 hPa East 3.2 km/h 11.3 km/h 61 % 0.0 mm
16:47 12.0 °C 4.9 °C 1021.6 hPa SSE 3.2 km/h 16.1 km/h 62 % 0.0 mm
16:57 11.9 °C 4.6 °C 1021.6 hPa ENE 8.0 km/h 14.5 km/h 61 % 0.0 mm
17:02 11.9 °C 4.6 °C 1021.6 hPa North 3.2 km/h 14.5 km/h 61 % 0.0 mm
17:12 11.6 °C 5.0 °C 1021.6 hPa NNE 4.8 km/h 16.1 km/h 64 % 0.0 mm
17:17 11.4 °C 4.1 °C 1021.6 hPa South 1.6 km/h 17.7 km/h 61 % 0.0 mm
17:22 11.3 °C 4.7 °C 1021.6 hPa North 3.2 km/h 17.7 km/h 64 % 0.0 mm
17:27 11.2 °C 4.9 °C 1021.6 hPa NE 1.6 km/h 17.7 km/h 65 % 0.0 mm
17:37 10.8 °C 4.7 °C 1021.6 hPa ENE 3.2 km/h 9.7 km/h 66 % 0.0 mm
17:42 10.6 °C 4.3 °C 1021.6 hPa SSW 1.6 km/h 9.7 km/h 65 % 0.0 mm
17:47 10.4 °C 4.3 °C 1021.6 hPa NE 3.2 km/h 11.3 km/h 66 % 0.0 mm
17:52 10.2 °C 4.1 °C 1021.6 hPa North 3.2 km/h 16.1 km/h 66 % 0.0 mm
17:57 10.1 °C 4.0 °C 1021.6 hPa NNE 6.4 km/h 16.1 km/h 66 % 0.0 mm
18:02 9.9 °C 4.1 °C 1021.6 hPa NNE 3.2 km/h 16.1 km/h 67 % 0.0 mm
18:12 9.6 °C 4.0 °C 1021.6 hPa Calm   12.9 km/h 68 % 0.0 mm
18:17 9.3 °C 3.9 °C 1021.6 hPa East 1.6 km/h 12.9 km/h 69 % 0.0 mm
18:22 9.2 °C 3.8 °C 1021.6 hPa NNE 4.8 km/h 12.9 km/h 69 % 0.0 mm
18:32 8.9 °C 3.5 °C 1021.9 hPa ENE 1.6 km/h 14.5 km/h 69 % 0.0 mm
18:42 8.6 °C 3.4 °C 1021.9 hPa ENE 1.6 km/h 19.3 km/h 70 % 0.0 mm
18:52 8.4 °C 3.2 °C 1021.9 hPa NE 4.8 km/h 16.1 km/h 70 % 0.0 mm
18:57 8.2 °C 3.5 °C 1022.2 hPa ENE 3.2 km/h 16.1 km/h 72 % 0.0 mm
19:02 8.1 °C 3.4 °C 1022.2 hPa NE 1.6 km/h 12.9 km/h 72 % 0.0 mm
19:07 7.9 °C 3.4 °C 1022.2 hPa NNE 3.2 km/h 9.7 km/h 73 % 0.0 mm
19:12 7.8 °C 3.1 °C 1022.2 hPa SSE 3.2 km/h 9.7 km/h 72 % 0.0 mm
19:17 7.7 °C 3.0 °C 1022.2 hPa ENE 3.2 km/h 8.0 km/h 72 % 0.0 mm
19:22 7.7 °C 3.0 °C 1022.2 hPa NE 6.4 km/h 12.9 km/h 72 % 0.0 mm
19:32 7.7 °C 2.8 °C 1022.2 hPa NE 4.8 km/h 14.5 km/h 71 % 0.0 mm
19:42 7.4 °C 2.7 °C 1022.2 hPa ESE 3.2 km/h 14.5 km/h 72 % 0.0 mm
19:47 7.4 °C 2.7 °C 1022.2 hPa NE 9.7 km/h 14.5 km/h 72 % 0.0 mm
19:52 7.3 °C 2.6 °C 1022.2 hPa NE 3.2 km/h 16.1 km/h 72 % 0.0 mm
19:57 7.1 °C 2.6 °C 1022.2 hPa NNE 4.8 km/h 16.1 km/h 73 % 0.0 mm
20:02 7.1 °C 2.6 °C 1022.2 hPa NNE 12.9 km/h 16.1 km/h 73 % 0.0 mm
20:12 6.9 °C 2.4 °C 1022.2 hPa NE 4.8 km/h 16.1 km/h 73 % 0.0 mm
20:17 6.9 °C 2.4 °C 1022.2 hPa NE 3.2 km/h 16.1 km/h 73 % 0.0 mm
20:22 6.8 °C 2.3 °C 1022.2 hPa NE 11.3 km/h 16.1 km/h 73 % 0.0 mm
20:27 6.7 °C 2.4 °C 1022.6 hPa NE 4.8 km/h 14.5 km/h 74 % 0.0 mm
20:32 6.6 °C 2.5 °C 1022.2 hPa Calm   14.5 km/h 75 % 0.0 mm
20:37 6.4 °C 2.3 °C 1022.6 hPa ENE 1.6 km/h 12.9 km/h 75 % 0.0 mm
20:42 6.5 °C 2.2 °C 1022.6 hPa NE 1.6 km/h 12.9 km/h 74 % 0.0 mm
20:47 6.4 °C 2.3 °C 1022.2 hPa Calm   12.9 km/h 75 % 0.0 mm
20:52 6.2 °C 2.1 °C 1022.2 hPa NE 1.6 km/h 11.3 km/h 75 % 0.0 mm
20:57 6.1 °C 2.2 °C 1022.2 hPa East 1.6 km/h 9.7 km/h 76 % 0.0 mm
21:02 5.9 °C 2.2 °C 1022.6 hPa Calm   9.7 km/h 77 % 0.0 mm
21:07 5.8 °C 2.1 °C 1022.6 hPa NE 3.2 km/h 9.7 km/h 77 % 0.0 mm
21:12 5.8 °C 2.1 °C 1022.6 hPa Calm   9.7 km/h 77 % 0.0 mm
21:17 5.7 °C 2.0 °C 1022.6 hPa NE 1.6 km/h 14.5 km/h 77 % 0.0 mm
21:22 5.6 °C 2.1 °C 1022.6 hPa ENE 3.2 km/h 14.5 km/h 78 % 0.0 mm
21:27 5.6 °C 2.1 °C 1022.6 hPa SE 1.6 km/h 14.5 km/h 78 % 0.0 mm
21:32 5.4 °C 1.9 °C 1022.6 hPa ENE 1.6 km/h 8.0 km/h 78 % 0.0 mm
21:42 5.2 °C 1.9 °C 1022.6 hPa ENE 1.6 km/h 9.7 km/h 79 % 0.0 mm
21:47 5.2 °C 1.9 °C 1022.6 hPa Calm   9.7 km/h 79 % 0.0 mm
21:52 5.2 °C 1.9 °C 1022.9 hPa Calm   9.7 km/h 79 % 0.0 mm
21:57 4.9 °C 1.6 °C 1022.9 hPa Calm   9.7 km/h 79 % 0.0 mm
22:02 4.9 °C 1.6 °C 1022.9 hPa Calm   8.0 km/h 79 % 0.0 mm
22:07 4.8 °C 1.5 °C 1022.9 hPa Calm   8.0 km/h 79 % 0.0 mm
22:17 4.7 °C 1.5 °C 1022.9 hPa Calm   6.4 km/h 80 % 0.0 mm
22:22 4.4 °C 1.4 °C 1022.9 hPa Calm   6.4 km/h 81 % 0.0 mm
22:27 4.3 °C 1.5 °C 1022.9 hPa Calm   6.4 km/h 82 % 0.0 mm
22:32 4.0 °C 1.2 °C 1022.9 hPa Calm   6.4 km/h 82 % 0.0 mm
22:37 3.7 °C 1.1 °C 1022.9 hPa Calm   6.4 km/h 83 % 0.0 mm
22:42 3.6 °C 1.2 °C 1022.9 hPa Calm   4.8 km/h 84 % 0.0 mm
22:47 3.6 °C 1.2 °C 1022.6 hPa ENE 1.6 km/h 4.8 km/h 84 % 0.0 mm
22:52 3.5 °C 1.1 °C 1022.9 hPa Calm   4.8 km/h 84 % 0.0 mm
23:02 3.1 °C 0.8 °C 1022.9 hPa Calm   4.8 km/h 85 % 0.0 mm
23:07 3.0 °C 0.9 °C 1022.9 hPa ENE 1.6 km/h 1.6 km/h 86 % 0.0 mm
23:12 2.9 °C 0.8 °C 1022.9 hPa East 1.6 km/h 1.6 km/h 86 % 0.0 mm
23:17 2.8 °C 0.7 °C 1022.9 hPa Calm   3.2 km/h 86 % 0.0 mm
23:22 2.8 °C 0.9 °C 1022.9 hPa Calm   3.2 km/h 87 % 0.0 mm
23:32 2.6 °C 0.7 °C 1022.9 hPa Calm   1.6 km/h 87 % 0.0 mm
23:42 2.4 °C 0.5 °C 1022.9 hPa Calm   1.6 km/h 87 % 0.0 mm
23:47 2.4 °C 0.5 °C 1022.9 hPa Calm   1.6 km/h 87 % 0.0 mm
23:52 2.3 °C 0.4 °C 1022.9 hPa Calm   1.6 km/h 87 % 0.0 mm
23:57 2.3 °C 0.5 °C 1022.9 hPa Calm   1.6 km/h 88 % 0.0 mm
Meteo18
Compliments of Weather Underground - 4 mb

Script developed by  Jim McMurry - jmcmurry@mwt.net Adapted for the template by  Wim van der Kuil - Leuven-Template.eu

You find our weather info also at:

European Weather Network

Weather Underground

Equipment we use:

Weather-station
Davis Vue

Weather-program
Meteohub

Weather-server
Raspberry PI 2 B+

Provider
1 and 1

Davis Vue

Meteohub

Raspberry PI 2 B+

1 and 1